Time;durP1;ratioP1;P1;durP2;ratioP2;P2;SDS_P1;SDS_P2;PMS_P1;PMS_P2;Temp;Humidity;BMP_temperature;BMP_pressure;BME280_temperature;BME280_humidity;BME280_pressure;Samples;Min_cycle;Max_cycle;Signal;HPM_P1;HPM_P2
2023/11/11 00:00:17;;;;;;;3.13;0.60;;;;;;;;;;5074981;28;20419;-85
2023/11/11 00:02:43;;;;;;;4.00;0.93;;;;;;;;;;5091233;28;20413;-87
2023/11/11 00:05:09;;;;;;;3.50;0.97;;;;;;;;;;5091488;28;20796;-87
2023/11/11 00:07:35;;;;;;;1.97;1.03;;;;;;;;;;5091409;28;20403;-85
2023/11/11 00:10:01;;;;;;;2.33;1.20;;;;;;;;;;5091271;28;20430;-86
2023/11/11 00:12:27;;;;;;;5.83;1.10;;;;;;;;;;5074154;28;20426;-86
2023/11/11 00:14:53;;;;;;;4.20;1.43;;;;;;;;;;5092199;28;20414;-88
2023/11/11 00:17:22;;;;;;;3.13;1.20;;;;;;;;;;5092402;28;20407;-85
2023/11/11 00:19:48;;;;;;;1.70;0.87;;;;;;;;;;5093118;28;20404;-84
2023/11/11 00:22:14;;;;;;;5.27;1.80;;;;;;;;;;5084074;28;20471;-89
2023/11/11 00:24:40;;;;;;;1.60;0.70;;;;;;;;;;5073162;28;20419;-87
2023/11/11 00:27:06;;;;;;;2.23;1.40;;;;;;;;;;5055146;28;20430;-87
2023/11/11 00:29:32;;;;;;;4.83;1.10;;;;;;;;;;5073054;28;20829;-86
2023/11/11 00:31:58;;;;;;;3.97;1.30;;;;;;;;;;5073261;28;20491;-87
2023/11/11 00:34:24;;;;;;;3.47;1.40;;;;;;;;;;5072913;28;20700;-88
2023/11/11 00:36:51;;;;;;;3.33;1.13;;;;;;;;;;5082263;28;20812;-84
2023/11/11 00:39:20;;;;;;;3.43;2.00;;;;;;;;;;5091612;28;20411;-85
2023/11/11 00:41:46;;;;;;;8.57;2.80;;;;;;;;;;5092286;28;20406;-90
2023/11/11 00:44:12;;;;;;;5.10;1.93;;;;;;;;;;5079563;28;20783;-94
2023/11/11 00:46:38;;;;;;;3.33;1.07;;;;;;;;;;5095257;28;20427;-90
2023/11/11 00:49:04;;;;;;;5.00;2.07;;;;;;;;;;5108368;28;20818;-85
2023/11/11 00:51:31;;;;;;;3.53;2.10;;;;;;;;;;5091591;28;20421;-86
2023/11/11 00:53:57;;;;;;;4.17;1.83;;;;;;;;;;5074003;28;20916;-83
2023/11/11 00:56:23;;;;;;;8.17;1.60;;;;;;;;;;5110168;22;20519;-90
2023/11/11 00:58:49;;;;;;;2.93;1.53;;;;;;;;;;5092832;28;20401;-88
2023/11/11 01:01:15;;;;;;;6.33;1.60;;;;;;;;;;5074756;28;20787;-87
2023/11/11 01:03:41;;;;;;;4.40;2.30;;;;;;;;;;5092749;28;20468;-86
2023/11/11 01:06:08;;;;;;;3.73;2.40;;;;;;;;;;5097148;28;20407;-91
2023/11/11 01:08:34;;;;;;;6.93;1.47;;;;;;;;;;5082851;28;20472;-85
2023/11/11 01:11:00;;;;;;;3.73;2.07;;;;;;;;;;5072297;28;20425;-85
2023/11/11 01:13:26;;;;;;;4.67;1.63;;;;;;;;;;5073275;28;20798;-86
2023/11/11 01:15:52;;;;;;;3.83;1.50;;;;;;;;;;5075856;28;20960;-86
2023/11/11 01:18:18;;;;;;;3.27;1.40;;;;;;;;;;5074863;28;20431;-85
2023/11/11 01:20:45;;;;;;;3.17;1.70;;;;;;;;;;5074228;28;20442;-88
2023/11/11 01:23:11;;;;;;;3.40;1.43;;;;;;;;;;5075575;28;20892;-88
2023/11/11 01:25:37;;;;;;;3.93;1.83;;;;;;;;;;5058304;28;20461;-93
2023/11/11 01:28:03;;;;;;;2.73;1.20;;;;;;;;;;5057260;28;20460;-85
2023/11/11 01:30:29;;;;;;;4.00;1.20;;;;;;;;;;5057510;28;20416;-85
2023/11/11 01:32:55;;;;;;;4.87;1.30;;;;;;;;;;5075629;28;20407;-85
2023/11/11 01:35:21;;;;;;;6.73;1.80;;;;;;;;;;5064034;28;20423;-86
2023/11/11 01:37:47;;;;;;;5.33;1.70;;;;;;;;;;5077568;28;20846;-85
2023/11/11 01:40:13;;;;;;;2.80;1.50;;;;;;;;;;5095877;28;20416;-88
2023/11/11 01:42:40;;;;;;;3.93;1.37;;;;;;;;;;5095769;28;20398;-86
2023/11/11 01:45:06;;;;;;;3.27;1.37;;;;;;;;;;5077424;28;20426;-86
2023/11/11 01:47:32;;;;;;;2.67;0.90;;;;;;;;;;5094890;28;20410;-84
2023/11/11 01:49:58;;;;;;;4.63;1.00;;;;;;;;;;5076893;28;20515;-88
2023/11/11 01:52:24;;;;;;;5.60;1.30;;;;;;;;;;5088559;28;20419;-87
2023/11/11 01:54:50;;;;;;;5.10;1.40;;;;;;;;;;5095592;28;20409;-87
2023/11/11 01:57:16;;;;;;;4.27;0.90;;;;;;;;;;5095318;28;20438;-84
2023/11/11 01:59:42;;;;;;;2.83;0.80;;;;;;;;;;5095115;28;20952;-86
2023/11/11 02:02:09;;;;;;;3.90;1.20;;;;;;;;;;5095552;28;20403;-88
2023/11/11 02:04:35;;;;;;;3.27;0.87;;;;;;;;;;5095773;28;20406;-86
2023/11/11 02:07:01;;;;;;;3.07;0.90;;;;;;;;;;5077795;28;20444;-92
2023/11/11 02:09:27;;;;;;;4.47;1.17;;;;;;;;;;5096101;28;20468;-88
2023/11/11 02:11:56;;;;;;;4.10;1.60;;;;;;;;;;5095162;28;20420;-88
2023/11/11 02:14:23;;;;;;;5.53;0.63;;;;;;;;;;5077236;28;20435;-88
2023/11/11 02:16:49;;;;;;;2.50;0.93;;;;;;;;;;5076718;28;20550;-88
2023/11/11 02:19:14;;;;;;;1.73;0.87;;;;;;;;;;5068454;28;20929;-87
2023/11/11 02:21:42;;;;;;;5.23;1.33;;;;;;;;;;5093956;28;20435;-86
2023/11/11 02:24:08;;;;;;;7.63;2.20;;;;;;;;;;5094616;28;20918;-89
2023/11/11 02:26:39;;;;;;;4.73;1.33;;;;;;;;;;5074867;28;20822;-88
2023/11/11 02:29:05;;;;;;;3.20;1.00;;;;;;;;;;5076051;28;20590;-88
2023/11/11 02:31:31;;;;;;;3.20;1.87;;;;;;;;;;5076877;28;20435;-87
2023/11/11 02:33:57;;;;;;;3.10;1.20;;;;;;;;;;5094796;28;20411;-85
2023/11/11 02:36:22;;;;;;;4.77;1.33;;;;;;;;;;5076050;28;20902;-88
2023/11/11 02:38:48;;;;;;;4.63;1.90;;;;;;;;;;5093911;28;20415;-87
2023/11/11 02:41:14;;;;;;;4.30;2.03;;;;;;;;;;5075558;28;20421;-87
2023/11/11 02:43:43;;;;;;;4.33;1.53;;;;;;;;;;5079816;28;20428;-88
2023/11/11 02:46:09;;;;;;;6.87;1.87;;;;;;;;;;5078627;28;20927;-87
2023/11/11 02:48:38;;;;;;;3.10;1.50;;;;;;;;;;5077489;28;20477;-88
2023/11/11 02:51:04;;;;;;;4.37;1.23;;;;;;;;;;5101723;28;20425;-89
2023/11/11 02:53:30;;;;;;;3.03;1.87;;;;;;;;;;5098732;28;20414;-86
2023/11/11 02:55:56;;;;;;;5.37;1.90;;;;;;;;;;5094164;28;20448;-86
2023/11/11 02:58:22;;;;;;;3.73;1.30;;;;;;;;;;5075755;28;20408;-86
2023/11/11 03:01:13;;;;;;;4.20;1.53;;;;;;;;;;5076397;28;20418;-90
2023/11/11 03:03:40;;;;;;;2.97;1.47;;;;;;;;;;5055753;28;20420;-89
2023/11/11 03:06:06;;;;;;;4.17;1.57;;;;;;;;;;5074001;28;20413;-87
2023/11/11 03:08:36;;;;;;;4.93;1.97;;;;;;;;;;5055705;28;20476;-84
2023/11/11 03:11:03;;;;;;;3.07;1.83;;;;;;;;;;5073691;28;20408;-84
2023/11/11 03:13:29;;;;;;;8.90;2.53;;;;;;;;;;5073840;28;20412;-88
2023/11/11 03:15:55;;;;;;;4.07;1.40;;;;;;;;;;5073538;28;20420;-85
2023/11/11 03:18:21;;;;;;;2.70;1.43;;;;;;;;;;5073744;28;20930;-84
2023/11/11 03:20:47;;;;;;;3.90;1.60;;;;;;;;;;5073332;28;20928;-85
2023/11/11 03:23:13;;;;;;;4.63;1.23;;;;;;;;;;5073736;28;20449;-85
2023/11/11 03:25:38;;;;;;;4.77;1.03;;;;;;;;;;5073628;28;20404;-88
2023/11/11 03:28:04;;;;;;;3.33;1.43;;;;;;;;;;5073498;28;20216;-87
2023/11/11 03:30:30;;;;;;;3.80;1.80;;;;;;;;;;5073555;28;20202;-86
2023/11/11 03:32:56;;;;;;;6.10;2.00;;;;;;;;;;5073378;28;20889;-85
2023/11/11 03:35:22;;;;;;;3.47;1.40;;;;;;;;;;5072576;28;20504;-85
2023/11/11 03:37:51;;;;;;;4.10;2.80;;;;;;;;;;5073156;28;20422;-85
2023/11/11 03:40:17;;;;;;;5.20;2.00;;;;;;;;;;5073291;28;20404;-85
2023/11/11 03:42:43;;;;;;;3.93;2.00;;;;;;;;;;5073198;28;20423;-85
2023/11/11 03:45:12;;;;;;;3.97;1.07;;;;;;;;;;5073161;28;20405;-85
2023/11/11 03:47:41;;;;;;;2.70;1.00;;;;;;;;;;5073136;28;20991;-84
2023/11/11 03:50:07;;;;;;;5.03;2.03;;;;;;;;;;5073025;28;20415;-85
2023/11/11 03:52:33;;;;;;;4.60;2.20;;;;;;;;;;5055158;28;20422;-85
2023/11/11 03:54:59;;;;;;;5.43;2.07;;;;;;;;;;5055008;28;20428;-86
2023/11/11 03:57:26;;;;;;;6.83;2.00;;;;;;;;;;5073154;28;20881;-85
2023/11/11 03:59:52;;;;;;;4.70;2.50;;;;;;;;;;5077185;28;20420;-85
2023/11/11 04:02:18;;;;;;;7.17;2.50;;;;;;;;;;5093282;28;20507;-85
2023/11/11 04:04:44;;;;;;;3.77;1.30;;;;;;;;;;5092838;28;20420;-85
2023/11/11 04:07:13;;;;;;;3.70;2.13;;;;;;;;;;5093233;28;20407;-85
2023/11/11 04:09:41;;;;;;;3.53;1.53;;;;;;;;;;5093227;28;20805;-85
2023/11/11 04:12:07;;;;;;;5.80;2.30;;;;;;;;;;5075132;28;20938;-85
2023/11/11 04:14:36;;;;;;;5.27;1.73;;;;;;;;;;5093243;28;20483;-85
2023/11/11 04:17:02;;;;;;;5.03;1.70;;;;;;;;;;5093246;28;20765;-85
2023/11/11 04:19:28;;;;;;;4.73;1.67;;;;;;;;;;5093103;28;20485;-85
2023/11/11 04:21:54;;;;;;;6.07;1.53;;;;;;;;;;5092402;28;20423;-86
2023/11/11 04:24:20;;;;;;;7.13;3.30;;;;;;;;;;5092976;28;20419;-85
2023/11/11 04:26:46;;;;;;;3.40;2.00;;;;;;;;;;5093062;28;20447;-85
2023/11/11 04:29:13;;;;;;;5.23;1.87;;;;;;;;;;5093043;28;20476;-84
2023/11/11 04:31:39;;;;;;;4.20;1.73;;;;;;;;;;5074970;28;20411;-84
2023/11/11 04:34:05;;;;;;;5.70;3.27;;;;;;;;;;5084329;28;20429;-84
2023/11/11 04:36:31;;;;;;;11.40;3.53;;;;;;;;;;5074935;28;20429;-84
2023/11/11 04:38:57;;;;;;;4.20;2.00;;;;;;;;;;5092944;28;20569;-84
2023/11/11 04:41:23;;;;;;;3.83;1.43;;;;;;;;;;5092881;28;20415;-84
2023/11/11 04:43:51;;;;;;;8.60;2.83;;;;;;;;;;5093009;28;20169;-84
2023/11/11 04:46:17;;;;;;;5.17;1.73;;;;;;;;;;5074906;28;20396;-86
2023/11/11 04:48:43;;;;;;;4.50;1.50;;;;;;;;;;5078055;28;20472;-84
2023/11/11 04:51:09;;;;;;;3.63;1.83;;;;;;;;;;5096525;28;20423;-85
2023/11/11 04:53:35;;;;;;;6.67;2.30;;;;;;;;;;5096715;28;20408;-86
2023/11/11 04:56:03;;;;;;;4.23;1.77;;;;;;;;;;5096637;28;20544;-87
2023/11/11 04:58:32;;;;;;;4.50;1.70;;;;;;;;;;5096742;28;20409;-84
2023/11/11 05:00:58;;;;;;;4.93;1.63;;;;;;;;;;5096888;28;20407;-86
2023/11/11 05:03:25;;;;;;;6.70;2.13;;;;;;;;;;5096642;28;20940;-86
2023/11/11 05:05:51;;;;;;;5.87;3.00;;;;;;;;;;5096322;28;20792;-85
2023/11/11 05:08:16;;;;;;;4.03;2.10;;;;;;;;;;5078295;28;20509;-85
2023/11/11 05:10:42;;;;;;;4.40;2.60;;;;;;;;;;5096622;28;20462;-86
2023/11/11 05:13:20;;;;;;;3.90;1.80;;;;;;;;;;5078321;28;20186;-86
2023/11/11 05:15:50;;;;;;;3.53;2.27;;;;;;;;;;5096477;28;20438;-84
2023/11/11 05:18:16;;;;;;;6.60;2.77;;;;;;;;;;5078250;28;20908;-84
2023/11/11 05:20:42;;;;;;;6.20;2.23;;;;;;;;;;5077804;28;20419;-86
2023/11/11 05:23:11;;;;;;;4.30;1.87;;;;;;;;;;5096472;28;20175;-84
2023/11/11 05:25:37;;;;;;;4.57;2.63;;;;;;;;;;5078341;28;20413;-85
2023/11/11 05:28:03;;;;;;;6.20;1.77;;;;;;;;;;5096296;28;20531;-91
2023/11/11 05:30:29;;;;;;;4.37;1.70;;;;;;;;;;5096434;28;20411;-88
2023/11/11 05:32:55;;;;;;;4.80;1.87;;;;;;;;;;5096491;28;20446;-84
2023/11/11 05:35:21;;;;;;;3.00;1.70;;;;;;;;;;5095958;28;20408;-83
2023/11/11 05:37:47;;;;;;;5.10;1.90;;;;;;;;;;5096044;28;20406;-90
2023/11/11 05:40:18;;;;;;;11.13;1.63;;;;;;;;;;5096247;28;20441;-83
2023/11/11 05:42:44;;;;;;;3.30;1.30;;;;;;;;;;5096111;28;20493;-84
2023/11/11 05:45:11;;;;;;;4.13;2.00;;;;;;;;;;5096188;28;20412;-83
2023/11/11 05:47:37;;;;;;;3.70;1.40;;;;;;;;;;5095897;28;20407;-84
2023/11/11 05:50:03;;;;;;;3.43;1.40;;;;;;;;;;5096017;28;20431;-91
2023/11/11 05:52:29;;;;;;;6.03;1.10;;;;;;;;;;5095791;28;20406;-85
2023/11/11 05:54:55;;;;;;;3.83;1.20;;;;;;;;;;5077444;28;20846;-88
2023/11/11 05:57:21;;;;;;;5.13;1.67;;;;;;;;;;5095836;28;20176;-85
2023/11/11 05:59:49;;;;;;;3.10;1.80;;;;;;;;;;5076773;28;20650;-83
2023/11/11 06:02:15;;;;;;;6.20;1.83;;;;;;;;;;5095684;28;20423;-84
2023/11/11 06:04:41;;;;;;;4.40;1.77;;;;;;;;;;5095087;28;20751;-84
2023/11/11 06:07:07;;;;;;;4.70;1.57;;;;;;;;;;5095349;28;20467;-84
2023/11/11 06:09:35;;;;;;;4.90;2.20;;;;;;;;;;5095402;28;20566;-88
2023/11/11 06:12:01;;;;;;;4.93;1.40;;;;;;;;;;5095306;28;20766;-84
2023/11/11 06:14:27;;;;;;;4.17;1.90;;;;;;;;;;5095268;28;20762;-83
2023/11/11 06:16:53;;;;;;;3.67;2.00;;;;;;;;;;5095272;28;20403;-85
2023/11/11 06:19:23;;;;;;;4.30;1.53;;;;;;;;;;5094626;28;20896;-84
2023/11/11 06:21:49;;;;;;;5.00;2.00;;;;;;;;;;5095046;28;20396;-84
2023/11/11 06:24:17;;;;;;;3.50;1.97;;;;;;;;;;5095143;28;20437;-83
2023/11/11 06:26:43;;;;;;;6.47;1.83;;;;;;;;;;5095023;28;20175;-84
2023/11/11 06:29:09;;;;;;;6.97;3.50;;;;;;;;;;5076741;28;21043;-84
2023/11/11 06:31:35;;;;;;;6.23;2.00;;;;;;;;;;5095081;28;20408;-84
2023/11/11 06:34:01;;;;;;;2.77;1.40;;;;;;;;;;5076787;28;20485;-85
2023/11/11 06:36:27;;;;;;;6.87;2.07;;;;;;;;;;5094539;28;20778;-85
2023/11/11 06:38:53;;;;;;;5.03;1.93;;;;;;;;;;5088470;28;20431;-84
2023/11/11 06:41:20;;;;;;;5.33;1.80;;;;;;;;;;5082751;28;20939;-84
2023/11/11 06:43:46;;;;;;;5.50;1.63;;;;;;;;;;5084976;28;20501;-85
2023/11/11 06:46:13;;;;;;;5.70;2.17;;;;;;;;;;5067245;28;20495;-83
2023/11/11 06:48:39;;;;;;;3.73;1.77;;;;;;;;;;5093740;28;20975;-86
2023/11/11 06:51:05;;;;;;;4.17;3.43;;;;;;;;;;5094263;28;20416;-83
2023/11/11 06:53:31;;;;;;;5.87;1.60;;;;;;;;;;5094617;28;20508;-86
2023/11/11 06:56:00;;;;;;;5.30;2.33;;;;;;;;;;5094367;28;20465;-83
2023/11/11 06:58:26;;;;;;;4.20;2.20;;;;;;;;;;5094445;28;20409;-88
2023/11/11 07:00:51;;;;;;;4.87;2.97;;;;;;;;;;5094476;28;20771;-86
2023/11/11 07:03:20;;;;;;;8.33;1.87;;;;;;;;;;5094360;28;20849;-84
2023/11/11 07:05:48;;;;;;;3.53;1.50;;;;;;;;;;5094007;28;20552;-83
2023/11/11 07:08:14;;;;;;;11.17;2.33;;;;;;;;;;5094171;28;20546;-88
2023/11/11 07:10:40;;;;;;;2.77;1.60;;;;;;;;;;5075013;28;20459;-86
2023/11/11 07:13:06;;;;;;;4.53;1.07;;;;;;;;;;5094223;28;20493;-83
2023/11/11 07:15:36;;;;;;;8.70;1.87;;;;;;;;;;5094160;28;20415;-84
2023/11/11 07:18:03;;;;;;;5.33;1.70;;;;;;;;;;5075927;28;20430;-86
2023/11/11 07:20:29;;;;;;;5.07;1.83;;;;;;;;;;5093761;28;20417;-84
2023/11/11 07:22:55;;;;;;;3.50;1.67;;;;;;;;;;5075913;28;20412;-91
2023/11/11 07:25:23;;;;;;;5.03;1.30;;;;;;;;;;5076063;28;20418;-84
2023/11/11 07:27:50;;;;;;;5.00;1.80;;;;;;;;;;5093751;28;20460;-88
2023/11/11 07:30:16;;;;;;;2.63;1.20;;;;;;;;;;5075961;28;20507;-88
2023/11/11 07:32:44;;;;;;;2.90;1.50;;;;;;;;;;5093909;28;20825;-84
2023/11/11 07:35:10;;;;;;;3.03;1.27;;;;;;;;;;5093439;28;20407;-85
2023/11/11 07:37:36;;;;;;;3.60;2.10;;;;;;;;;;5075512;28;20837;-84
2023/11/11 07:40:04;;;;;;;3.93;1.40;;;;;;;;;;5093710;28;20800;-83
2023/11/11 07:42:30;;;;;;;2.60;1.17;;;;;;;;;;5093609;28;20422;-84
2023/11/11 07:44:56;;;;;;;4.47;2.20;;;;;;;;;;5093160;28;20413;-83
2023/11/11 07:47:22;;;;;;;2.93;1.50;;;;;;;;;;5093580;28;20191;-84
2023/11/11 07:49:48;;;;;;;3.17;1.60;;;;;;;;;;5074917;28;20484;-83
2023/11/11 07:52:14;;;;;;;2.63;0.93;;;;;;;;;;5075330;28;20928;-84
2023/11/11 07:54:40;;;;;;;1.80;0.83;;;;;;;;;;5093551;28;20423;-84
2023/11/11 07:57:09;;;;;;;3.20;0.50;;;;;;;;;;5075313;28;20227;-84
2023/11/11 07:59:39;;;;;;;2.70;1.40;;;;;;;;;;5093500;28;20426;-84
2023/11/11 08:02:05;;;;;;;3.40;1.50;;;;;;;;;;5097153;28;20412;-83
2023/11/11 08:04:31;;;;;;;2.23;1.00;;;;;;;;;;5092962;28;20414;-84
2023/11/11 08:06:57;;;;;;;2.93;1.10;;;;;;;;;;5061039;28;20774;-85
2023/11/11 08:09:24;;;;;;;2.43;0.67;;;;;;;;;;5073016;28;20502;-86
2023/11/11 08:11:49;;;;;;;2.60;1.30;;;;;;;;;;5054973;28;20443;-83
2023/11/11 08:14:15;;;;;;;3.10;1.40;;;;;;;;;;5072987;28;20474;-85
2023/11/11 08:16:41;;;;;;;2.30;0.93;;;;;;;;;;5072914;28;20879;-85
2023/11/11 08:19:08;;;;;;;3.93;1.50;;;;;;;;;;5072603;28;20419;-86
2023/11/11 08:21:34;;;;;;;2.30;1.40;;;;;;;;;;5072646;28;20913;-86
2023/11/11 08:24:00;;;;;;;2.93;1.73;;;;;;;;;;5072873;28;20549;-83
2023/11/11 08:26:27;;;;;;;5.57;0.90;;;;;;;;;;5072694;28;20961;-83
2023/11/11 08:28:53;;;;;;;2.23;1.27;;;;;;;;;;5072679;28;20473;-83
2023/11/11 08:31:19;;;;;;;2.47;1.20;;;;;;;;;;5072867;28;20928;-87
2023/11/11 08:33:45;;;;;;;4.70;1.53;;;;;;;;;;5072693;28;20415;-83
2023/11/11 08:36:11;;;;;;;4.23;1.60;;;;;;;;;;5072629;28;20487;-83
2023/11/11 08:38:37;;;;;;;4.07;1.43;;;;;;;;;;5072851;28;20554;-83
2023/11/11 08:41:03;;;;;;;3.60;1.33;;;;;;;;;;5072711;28;20419;-86
2023/11/11 08:43:30;;;;;;;2.67;1.67;;;;;;;;;;5072420;28;20412;-83
2023/11/11 08:45:56;;;;;;;2.17;1.13;;;;;;;;;;5072709;28;20415;-86
2023/11/11 08:48:22;;;;;;;5.00;1.57;;;;;;;;;;5072517;28;20465;-84
2023/11/11 08:50:48;;;;;;;2.87;1.80;;;;;;;;;;5072165;28;20419;-84
2023/11/11 08:53:14;;;;;;;5.25;2.80;;;;;;;;;;5053773;28;20472;-84
2023/11/11 08:55:41;;;;;;;4.30;2.30;;;;;;;;;;5051144;28;20230;-86
2023/11/11 08:58:07;;;;;;;4.87;2.90;;;;;;;;;;5051244;28;20507;-86
2023/11/11 09:00:36;;;;;;;4.23;2.43;;;;;;;;;;5051149;28;20467;-85
2023/11/11 09:03:04;;;;;;;4.67;2.67;;;;;;;;;;5052482;28;20805;-84
2023/11/11 09:05:30;;;;;;;4.37;2.47;;;;;;;;;;5052039;28;20445;-87
2023/11/11 09:07:56;;;;;;;6.20;2.10;;;;;;;;;;5052457;28;20471;-85
2023/11/11 09:10:22;;;;;;;5.47;3.20;;;;;;;;;;5052261;28;20820;-84
2023/11/11 09:12:48;;;;;;;3.87;2.20;;;;;;;;;;5052366;28;20406;-87
2023/11/11 09:15:16;;;;;;;4.13;2.30;;;;;;;;;;5052568;28;20408;-84
2023/11/11 09:17:42;;;;;;;4.90;3.40;;;;;;;;;;5052481;28;20428;-85
2023/11/11 09:20:09;;;;;;;6.07;3.83;;;;;;;;;;5052002;28;20503;-85
2023/11/11 09:22:35;;;;;;;5.07;2.43;;;;;;;;;;5052299;28;20405;-86
2023/11/11 09:25:01;;;;;;;5.93;3.80;;;;;;;;;;5050878;28;20430;-86
2023/11/11 09:27:27;;;;;;;5.77;3.40;;;;;;;;;;5052224;28;20444;-84
2023/11/11 09:29:54;;;;;;;5.03;3.50;;;;;;;;;;5052163;28;20475;-84
2023/11/11 09:32:20;;;;;;;7.53;4.30;;;;;;;;;;5052291;28;20511;-86
2023/11/11 09:34:46;;;;;;;6.30;3.83;;;;;;;;;;5053553;28;20409;-85
2023/11/11 09:37:12;;;;;;;5.90;3.93;;;;;;;;;;5055786;28;20401;-86
2023/11/11 09:39:41;;;;;;;5.30;3.33;;;;;;;;;;5055692;28;20490;-83
2023/11/11 09:42:07;;;;;;;7.23;3.77;;;;;;;;;;5055670;28;20413;-83
2023/11/11 09:44:33;;;;;;;8.00;5.10;;;;;;;;;;5055430;28;20413;-87
2023/11/11 09:47:00;;;;;;;8.30;4.80;;;;;;;;;;5055628;28;20397;-83
2023/11/11 09:49:30;;;;;;;6.80;4.30;;;;;;;;;;5055002;28;20463;-86
2023/11/11 09:51:57;;;;;;;7.30;4.03;;;;;;;;;;5055549;28;20403;-84
2023/11/11 09:54:23;;;;;;;7.20;5.87;;;;;;;;;;5055528;28;20407;-83
2023/11/11 09:56:49;;;;;;;6.40;5.23;;;;;;;;;;5072100;28;20464;-89
2023/11/11 09:59:16;;;;;;;6.70;4.70;;;;;;;;;;5057802;28;20256;-84
2023/11/11 10:01:44;;;;;;;7.10;4.97;;;;;;;;;;5075058;28;20467;-88
2023/11/11 10:04:13;;;;;;;8.00;5.40;;;;;;;;;;5074764;28;20795;-86
2023/11/11 10:06:39;;;;;;;7.20;5.10;;;;;;;;;;5075052;28;20404;-87
2023/11/11 10:09:08;;;;;;;9.90;5.53;;;;;;;;;;5074944;28;20481;-84
2023/11/11 10:11:34;;;;;;;7.87;5.33;;;;;;;;;;5075126;28;20743;-82
2023/11/11 10:14:00;;;;;;;6.30;4.40;;;;;;;;;;5074964;28;20495;-83
2023/11/11 10:16:26;;;;;;;7.60;5.00;;;;;;;;;;5079405;28;20907;-83
2023/11/11 10:18:53;;;;;;;8.30;4.83;;;;;;;;;;5067386;28;20421;-83
2023/11/11 10:21:22;;;;;;;8.40;6.10;;;;;;;;;;5095079;28;20970;-83
2023/11/11 10:23:48;;;;;;;10.37;6.47;;;;;;;;;;5095209;28;20958;-83
2023/11/11 10:26:15;;;;;;;9.07;6.10;;;;;;;;;;5095095;28;20511;-84
2023/11/11 10:28:41;;;;;;;8.90;6.37;;;;;;;;;;5094941;28;20513;-84
2023/11/11 10:31:10;;;;;;;8.57;5.87;;;;;;;;;;5095123;28;20410;-84
2023/11/11 10:33:37;;;;;;;11.97;5.87;;;;;;;;;;5094615;28;20512;-83
2023/11/11 10:36:04;;;;;;;9.83;6.30;;;;;;;;;;5094973;28;20406;-84
2023/11/11 10:38:32;;;;;;;9.60;6.87;;;;;;;;;;5094890;28;20422;-83
2023/11/11 10:40:58;;;;;;;8.23;6.50;;;;;;;;;;5076647;28;20446;-83
2023/11/11 10:43:28;;;;;;;9.93;6.80;;;;;;;;;;5094772;28;20421;-83
2023/11/11 10:45:54;;;;;;;13.07;8.67;;;;;;;;;;5094380;28;20438;-83
2023/11/11 10:48:22;;;;;;;10.50;7.30;;;;;;;;;;5094644;28;20852;-83
2023/11/11 10:50:50;;;;;;;11.40;7.93;;;;;;;;;;5094488;28;20500;-83
2023/11/11 10:53:17;;;;;;;11.80;8.20;;;;;;;;;;5094660;28;20842;-83
2023/11/11 10:55:46;;;;;;;11.50;8.30;;;;;;;;;;5094242;28;20460;-84
2023/11/11 10:58:16;;;;;;;10.43;6.67;;;;;;;;;;5094484;28;20424;-83
2023/11/11 11:00:42;;;;;;;12.60;6.10;;;;;;;;;;5094427;28;20413;-83
2023/11/11 11:03:08;;;;;;;8.50;5.37;;;;;;;;;;5094349;28;20761;-84
2023/11/11 11:05:43;;;;;;;7.80;5.80;;;;;;;;;;5093921;28;20413;-86
2023/11/11 11:08:20;;;;;;;8.47;5.23;;;;;;;;;;5094229;28;20467;-83
2023/11/11 11:11:05;;;;;;;8.10;4.97;;;;;;;;;;5094282;28;20410;-84
2023/11/11 11:13:31;;;;;;;5.80;3.63;;;;;;;;;;5094297;28;20464;-82
2023/11/11 11:15:59;;;;;;;6.77;3.60;;;;;;;;;;5076134;28;20796;-81
2023/11/11 11:18:26;;;;;;;8.23;4.50;;;;;;;;;;5093752;28;20406;-84
2023/11/11 11:20:53;;;;;;;6.73;3.60;;;;;;;;;;5094145;28;20955;-85
2023/11/11 11:23:21;;;;;;;6.27;3.80;;;;;;;;;;5094363;28;20504;-81
2023/11/11 11:25:49;;;;;;;5.80;3.43;;;;;;;;;;5075930;28;20937;-81
2023/11/11 11:28:16;;;;;;;5.33;3.40;;;;;;;;;;5075838;28;20509;-81
2023/11/11 11:30:42;;;;;;;7.93;3.83;;;;;;;;;;5094141;28;20881;-89
2023/11/11 11:33:11;;;;;;;7.90;4.47;;;;;;;;;;5094243;28;20490;-89
2023/11/11 11:35:40;;;;;;;7.20;3.67;;;;;;;;;;5093784;28;20180;-90
2023/11/11 11:38:06;;;;;;;6.20;3.77;;;;;;;;;;5094090;28;20437;-90
2023/11/11 11:40:42;;;;;;;6.30;4.17;;;;;;;;;;5094200;28;20466;-89
2023/11/11 11:43:10;;;;;;;4.53;3.10;;;;;;;;;;5094334;28;20758;-87
2023/11/11 11:45:39;;;;;;;4.90;3.50;;;;;;;;;;5076086;28;20403;-87
2023/11/11 11:48:09;;;;;;;3.80;2.17;;;;;;;;;;5075474;28;20427;-80
2023/11/11 11:50:35;;;;;;;2.63;1.70;;;;;;;;;;5089289;28;20503;-88
2023/11/11 11:53:01;;;;;;;8.63;2.03;;;;;;;;;;5081392;28;20787;-79
2023/11/11 11:55:38;;;;;;;2.23;1.23;;;;;;;;;;5082764;28;20463;-81
2023/11/11 11:58:04;;;;;;;2.97;1.13;;;;;;;;;;5084497;28;20439;-86
2023/11/11 12:00:30;;;;;;;2.50;1.20;;;;;;;;;;5078302;28;20432;-90
2023/11/11 12:02:58;;;;;;;3.50;1.40;;;;;;;;;;5084201;28;20418;-80
2023/11/11 12:05:25;;;;;;;2.90;0.93;;;;;;;;;;5081017;28;20498;-81
2023/11/11 12:07:51;;;;;;;4.63;0.87;;;;;;;;;;5082449;28;20412;-83
2023/11/11 12:10:20;;;;;;;3.17;0.87;;;;;;;;;;5087555;28;20421;-87
2023/11/11 12:12:47;;;;;;;3.30;1.10;;;;;;;;;;5084121;28;20454;-83
2023/11/11 12:15:13;;;;;;;2.23;0.60;;;;;;;;;;5084562;28;20876;-89
2023/11/11 12:17:40;;;;;;;2.63;0.40;;;;;;;;;;5079942;28;20451;-90
2023/11/11 12:20:07;;;;;;;3.20;0.67;;;;;;;;;;5060408;28;20408;-84
2023/11/11 12:22:33;;;;;;;2.70;0.77;;;;;;;;;;5082547;28;20424;-82
2023/11/11 12:24:59;;;;;;;1.60;0.40;;;;;;;;;;5077518;28;20476;-79
2023/11/11 12:27:26;;;;;;;2.40;1.03;;;;;;;;;;5084497;28;20414;-81
2023/11/11 12:29:52;;;;;;;2.77;0.73;;;;;;;;;;5078521;28;20496;-79
2023/11/11 12:32:18;;;;;;;5.30;0.50;;;;;;;;;;5072993;28;20566;-79
2023/11/11 12:34:46;;;;;;;2.50;0.40;;;;;;;;;;5072875;28;20409;-79
2023/11/11 12:37:20;;;;;;;2.00;0.43;;;;;;;;;;5073489;28;20818;-80
2023/11/11 12:39:53;;;;;;;2.43;0.53;;;;;;;;;;5073069;28;20404;-81
2023/11/11 12:42:25;;;;;;;1.67;0.77;;;;;;;;;;5073033;28;20421;-80
2023/11/11 12:44:52;;;;;;;2.20;0.90;;;;;;;;;;5073152;28;20460;-80
2023/11/11 12:47:18;;;;;;;3.43;0.67;;;;;;;;;;5074898;28;20432;-84
2023/11/11 12:49:50;;;;;;;1.40;0.60;;;;;;;;;;5080702;28;20521;-84
2023/11/11 12:52:17;;;;;;;2.03;0.60;;;;;;;;;;5082546;28;20801;-84
2023/11/11 12:54:43;;;;;;;1.77;0.43;;;;;;;;;;5081055;28;20977;-86
2023/11/11 12:57:10;;;;;;;1.43;0.60;;;;;;;;;;5082408;28;20450;-82
2023/11/11 12:59:36;;;;;;;4.37;1.07;;;;;;;;;;5080518;28;20407;-80
2023/11/11 13:02:03;;;;;;;2.63;0.63;;;;;;;;;;5083084;28;20398;-83
2023/11/11 13:04:32;;;;;;;3.80;0.40;;;;;;;;;;5081108;28;20472;-85
2023/11/11 13:07:00;;;;;;;2.50;0.70;;;;;;;;;;5081200;28;20441;-84
2023/11/11 13:09:40;;;;;;;2.00;0.27;;;;;;;;;;5067132;28;20494;-85
2023/11/11 13:12:07;;;;;;;3.07;0.70;;;;;;;;;;5076190;28;20404;-81
2023/11/11 13:14:36;;;;;;;3.20;0.40;;;;;;;;;;5076183;28;21025;-84
2023/11/11 13:17:05;;;;;;;2.57;0.40;;;;;;;;;;5056968;28;20428;-81
2023/11/11 13:19:34;;;;;;;2.10;0.50;;;;;;;;;;5075784;28;20417;-80
2023/11/11 13:22:02;;;;;;;0.67;0.30;;;;;;;;;;5058126;28;20439;-82
2023/11/11 13:24:28;;;;;;;1.87;0.67;;;;;;;;;;5076013;28;20466;-83
2023/11/11 13:26:54;;;;;;;1.00;0.43;;;;;;;;;;5075895;28;20420;-83
2023/11/11 13:29:20;;;;;;;1.43;0.60;;;;;;;;;;5075815;28;20472;-82
2023/11/11 13:31:48;;;;;;;1.47;0.30;;;;;;;;;;5075888;28;20955;-83
2023/11/11 13:34:17;;;;;;;2.67;0.47;;;;;;;;;;5075456;28;20524;-80
2023/11/11 13:36:44;;;;;;;1.60;0.40;;;;;;;;;;5075594;28;20845;-82
2023/11/11 13:39:19;;;;;;;1.73;0.63;;;;;;;;;;5091057;28;20942;-79
2023/11/11 13:41:46;;;;;;;5.80;2.90;;;;;;;;;;5095940;28;20523;-79
2023/11/11 13:44:14;;;;;;;0.70;0.20;;;;;;;;;;5095625;28;20482;-80
2023/11/11 13:46:40;;;;;;;0.97;0.30;;;;;;;;;;5095860;28;20409;-81
2023/11/11 13:49:07;;;;;;;1.40;0.40;;;;;;;;;;5095198;28;20534;-79
2023/11/11 13:51:33;;;;;;;0.83;0.37;;;;;;;;;;5095564;28;20411;-80
2023/11/11 13:53:59;;;;;;;0.97;0.60;;;;;;;;;;5089415;28;20434;-81
2023/11/11 13:56:25;;;;;;;2.20;0.43;;;;;;;;;;5077604;28;20501;-78
2023/11/11 13:58:55;;;;;;;0.77;0.30;;;;;;;;;;5074885;28;20417;-78
2023/11/11 14:01:21;;;;;;;1.83;0.43;;;;;;;;;;5075306;28;20405;-78
2023/11/11 14:03:47;;;;;;;1.90;0.53;;;;;;;;;;5074866;28;20410;-80
2023/11/11 14:06:13;;;;;;;1.20;0.37;;;;;;;;;;5075176;28;20404;-80
2023/11/11 14:08:39;;;;;;;0.90;0.30;;;;;;;;;;5075169;28;20480;-78
2023/11/11 14:11:06;;;;;;;2.20;0.30;;;;;;;;;;5075010;28;20458;-80
2023/11/11 14:13:33;;;;;;;0.57;0.20;;;;;;;;;;5074977;28;20397;-77
2023/11/11 14:16:00;;;;;;;2.50;0.40;;;;;;;;;;5074816;28;20412;-78
2023/11/11 14:18:26;;;;;;;4.07;0.23;;;;;;;;;;5074550;28;20413;-84
2023/11/11 14:20:59;;;;;;;0.93;0.40;;;;;;;;;;5056365;28;20451;-79
2023/11/11 14:23:26;;;;;;;3.10;0.40;;;;;;;;;;5074516;28;21035;-80
2023/11/11 14:25:53;;;;;;;1.30;0.40;;;;;;;;;;5074830;28;20416;-78
2023/11/11 14:28:19;;;;;;;0.80;0.37;;;;;;;;;;5074766;28;20462;-78
2023/11/11 14:30:45;;;;;;;1.37;0.23;;;;;;;;;;5074707;28;20421;-83
2023/11/11 14:33:11;;;;;;;0.70;0.30;;;;;;;;;;5074490;28;20464;-84
2023/11/11 14:35:37;;;;;;;0.93;0.20;;;;;;;;;;5074699;28;20823;-78
2023/11/11 14:38:04;;;;;;;0.80;0.20;;;;;;;;;;5056428;28;20427;-80
2023/11/11 14:40:30;;;;;;;0.93;0.40;;;;;;;;;;5056327;28;20447;-83